Webcams

Webcam1&2         Webcam1 (Zeitraffer 2 Std.)        Webcam2 (Zeitraffer 2 Std.)

Webcam2 - Zeitraffer (die letzten zwei Stunden, Intervall: 10min)
cam2--20190717_085958M
cam2--20190717_090959M
cam2--20190717_091959M
cam2--20190717_092959M
cam2--20190717_093958M
cam2--20190717_094959M
cam2--20190717_095959M
cam2--20190717_100959M
cam2--20190717_101958M
cam2--20190717_102959M
cam2--20190717_103959M
cam2--20190717_104958M
cam2--20190717_105958M
01/13 
start stop bwd fwd

Webcam2 - Aktuell

Lokale Serverzeit 11:00 | 17.07.2019
Webcam-Lageplan

Webcam1&2        Webcam1 (Zeitraffer 2 Std.)        Webcam2 (Zeitraffer 2 Std.)

Webcam1 - Zeitraffer (die letzten zwei Stunden, Intervall: 10min)
cam1--20190717_090000M
cam1--20190717_091000M
cam1--20190717_091959M
cam1--20190717_093000M
cam1--20190717_094000M
cam1--20190717_094959M
cam1--20190717_100000M
cam1--20190717_100959M
cam1--20190717_101959M
cam1--20190717_103000M
cam1--20190717_104000M
cam1--20190717_104959M
cam1--20190717_105959M
01/13 
start stop bwd fwd

Webcam1 - Aktuell

Lokale Serverzeit 11:00 | 17.07.2019
Webcam-Lageplan

Flugwetter

[source: ADDS]
METAR
LOWL 170850Z VRB03KT 9999 FEW036 SCT300 21/12 Q1015 NOSIG =
TAF LOWL 170515Z 1706/1806 30004KT CAVOK TX26/1715Z TN14/1804Z
TAF
TAF LOWL 170515Z 1706/1806 30004KT CAVOK TX26/1715Z TN14/1804Z =